Time;durP1;ratioP1;P1;durP2;ratioP2;P2;SDS_P1;SDS_P2;PMS_P1;PMS_P2;Temp;Humidity;BMP_temperature;BMP_pressure;BME280_temperature;BME280_humidity;BME280_pressure;Samples;Min_cycle;Max_cycle;Signal;HPM_P1;HPM_P2
2021/06/21 00:00:01;;;;;;;19.67;11.27;;;24.60;71.40;;;;;;5057074;28;20028;-66
2021/06/21 00:02:27;;;;;;;27.15;11.00;;;24.50;71.90;;;;;;5068556;28;20042;-66
2021/06/21 00:04:56;;;;;;;27.80;10.88;;;24.30;72.70;;;;;;5057738;28;20086;-66
2021/06/21 00:07:22;;;;;;;20.77;10.38;;;24.10;73.30;;;;;;5062423;28;20021;-65
2021/06/21 00:09:48;;;;;;;27.42;11.45;;;24.00;73.30;;;;;;5064964;28;20497;-66
2021/06/21 00:12:15;;;;;;;18.17;10.20;;;24.20;72.50;;;;;;5055334;28;20089;-66
2021/06/21 00:14:41;;;;;;;20.63;9.52;;;24.20;72.00;;;;;;5068049;28;20021;-66
2021/06/21 00:17:08;;;;;;;17.27;9.30;;;24.40;71.10;;;;;;5059814;28;20024;-66
2021/06/21 00:19:34;;;;;;;23.10;9.05;;;24.50;69.80;;;;;;5061600;28;20480;-66
2021/06/21 00:22:01;;;;;;;24.48;10.40;;;24.60;69.10;;;;;;5054245;28;20029;-66
2021/06/21 00:24:26;;;;;;;27.67;10.38;;;24.60;68.80;;;;;;5068271;28;20032;-66
2021/06/21 00:26:52;;;;;;;25.88;10.93;;;24.60;68.40;;;;;;5056860;28;20031;-66
2021/06/21 00:29:18;;;;;;;17.25;9.23;;;24.60;68.30;;;;;;5062707;28;20032;-66
2021/06/21 00:31:45;;;;;;;22.77;9.65;;;24.70;68.30;;;;;;5064338;28;20029;-66
2021/06/21 00:34:10;;;;;;;20.05;9.70;;;24.80;67.70;;;;;;5055464;28;20050;-65
2021/06/21 00:36:36;;;;;;;24.70;10.65;;;24.90;66.90;;;;;;5068326;28;20506;-65
2021/06/21 00:39:05;;;;;;;20.05;9.32;;;25.00;66.40;;;;;;5058306;28;20390;-65
2021/06/21 00:41:32;;;;;;;15.20;8.85;;;25.00;65.70;;;;;;5060673;28;20029;-66
2021/06/21 00:43:57;;;;;;;18.92;9.43;;;25.00;65.60;;;;;;5065940;28;20103;-66
2021/06/21 00:46:23;;;;;;;18.13;8.98;;;25.00;65.10;;;;;;5036503;28;20108;-66
2021/06/21 00:48:48;;;;;;;16.88;9.40;;;25.00;64.90;;;;;;5066352;28;20028;-66
2021/06/21 00:51:14;;;;;;;18.40;9.68;;;25.00;64.90;;;;;;5051229;28;20040;-66
2021/06/21 00:53:40;;;;;;;17.10;9.55;;;25.00;65.20;;;;;;5063770;28;20025;-66
2021/06/21 00:56:06;;;;;;;15.20;9.13;;;25.00;65.00;;;;;;5055869;28;20056;-66
2021/06/21 00:58:32;;;;;;;21.73;8.88;;;25.10;65.10;;;;;;5067187;28;20036;-65
2021/06/21 01:00:57;;;;;;;17.75;9.43;;;25.10;64.50;;;;;;5057050;28;20016;-65
2021/06/21 01:03:23;;;;;;;12.75;8.50;;;25.20;64.40;;;;;;5061463;28;20478;-66
2021/06/21 01:05:48;;;;;;;18.17;9.13;;;25.20;63.50;;;;;;5046303;28;20020;-65
2021/06/21 01:08:14;;;;;;;13.48;8.85;;;25.20;63.40;;;;;;5054850;28;20025;-66
2021/06/21 01:10:43;;;;;;;14.88;7.88;;;25.20;63.80;;;;;;5067487;28;20099;-66
2021/06/21 01:13:11;;;;;;;16.15;8.77;;;25.20;63.40;;;;;;5059056;28;20036;-66
2021/06/21 01:15:44;;;;;;;15.52;8.43;;;25.30;63.30;;;;;;5059489;28;20089;-66
2021/06/21 01:18:26;;;;;;;17.02;8.35;;;25.20;63.50;;;;;;5049246;28;20028;-66
2021/06/21 01:21:13;;;;;;;15.05;8.05;;;25.20;63.50;;;;;;5038737;28;20074;-66
2021/06/21 01:24:10;;;;;;;13.50;8.45;;;25.20;63.50;;;;;;5063075;28;20058;-66
2021/06/21 01:26:46;;;;;;;12.80;7.97;;;25.20;63.40;;;;;;5054361;28;20055;-66
2021/06/21 01:29:44;;;;;;;17.60;8.73;;;25.20;63.60;;;;;;5049537;28;20119;-66
2021/06/21 01:32:16;;;;;;;13.55;8.43;;;25.20;63.90;;;;;;5054765;28;20479;-66
2021/06/21 01:34:51;;;;;;;13.00;8.13;;;25.20;64.00;;;;;;5039140;28;20548;-66
2021/06/21 01:37:20;;;;;;;15.15;8.27;;;25.20;64.60;;;;;;5061892;28;20482;-66
2021/06/21 01:39:51;;;;;;;19.45;7.90;;;25.10;64.30;;;;;;5046252;28;20031;-66
2021/06/21 01:42:20;;;;;;;14.57;8.02;;;25.20;63.60;;;;;;5054366;28;20079;-66
2021/06/21 01:44:57;;;;;;;13.00;7.25;;;25.20;63.70;;;;;;5066333;28;20243;-66
2021/06/21 01:47:23;;;;;;;22.05;7.15;;;25.20;63.00;;;;;;5060280;28;20016;-66
2021/06/21 01:49:51;;;;;;;20.45;8.05;;;25.20;62.90;;;;;;5057052;28;20087;-66
2021/06/21 01:52:19;;;;;;;13.07;6.75;;;25.20;62.60;;;;;;5051358;28;20032;-66
2021/06/21 01:54:49;;;;;;;15.57;6.55;;;25.20;62.60;;;;;;5048839;28;20593;-66
2021/06/21 01:57:21;;;;;;;24.02;7.57;;;25.10;62.80;;;;;;5059053;28;20136;-66
2021/06/21 01:59:49;;;;;;;18.35;6.72;;;25.10;63.00;;;;;;5057422;28;20021;-66
2021/06/21 02:02:16;;;;;;;19.92;6.15;;;25.10;62.80;;;;;;5049204;28;20031;-66
2021/06/21 02:04:42;;;;;;;13.07;5.47;;;25.10;61.80;;;;;;5054742;28;20027;-65
2021/06/21 02:07:09;;;;;;;17.65;4.65;;;25.10;61.50;;;;;;5044957;28;20112;-66
2021/06/21 02:09:35;;;;;;;16.40;5.40;;;24.90;61.70;;;;;;5044380;28;20025;-66
2021/06/21 02:12:01;;;;;;;9.27;4.32;;;24.80;62.70;;;;;;5059433;28;20055;-65
2021/06/21 02:14:29;;;;;;;9.38;4.13;;;24.80;61.90;;;;;;5070818;28;20554;-65
2021/06/21 02:16:57;;;;;;;14.27;4.43;;;24.70;61.50;;;;;;5059729;28;20040;-65
2021/06/21 02:19:28;;;;;;;8.60;3.88;;;24.70;61.70;;;;;;5064655;28;20104;-65
2021/06/21 02:21:54;;;;;;;8.02;3.45;;;24.60;61.90;;;;;;5056502;28;20028;-65
2021/06/21 02:24:20;;;;;;;10.25;4.05;;;24.40;62.20;;;;;;5070497;28;20028;-65
2021/06/21 02:26:50;;;;;;;16.60;4.97;;;24.40;62.20;;;;;;5058329;28;20047;-65
2021/06/21 02:29:20;;;;;;;11.70;3.95;;;24.40;62.50;;;;;;5047579;28;20274;-65
2021/06/21 02:31:47;;;;;;;11.03;4.07;;;24.30;62.40;;;;;;5066889;28;20032;-65
2021/06/21 02:34:13;;;;;;;14.43;3.70;;;24.30;62.70;;;;;;5039449;28;20264;-65
2021/06/21 02:36:39;;;;;;;9.32;3.80;;;24.30;62.80;;;;;;5070031;28;20019;-65
2021/06/21 02:39:05;;;;;;;9.40;3.65;;;24.30;63.00;;;;;;5060800;28;20119;-65
2021/06/21 02:41:34;;;;;;;12.07;3.97;;;24.20;63.10;;;;;;5045396;28;20036;-65
2021/06/21 02:43:59;;;;;;;14.52;4.50;;;24.10;63.50;;;;;;5068431;28;20024;-65
2021/06/21 02:46:25;;;;;;;11.63;3.53;;;24.10;63.90;;;;;;5052020;28;20021;-65
2021/06/21 02:48:51;;;;;;;6.55;3.40;;;24.20;63.70;;;;;;5059713;28;20021;-65
2021/06/21 02:51:32;;;;;;;7.00;3.40;;;24.10;63.70;;;;;;5062052;28;20071;-65
2021/06/21 02:54:13;;;;;;;9.35;3.55;;;24.00;63.60;;;;;;5059460;28;20025;-65
2021/06/21 02:56:49;;;;;;;8.63;3.70;;;24.00;64.20;;;;;;5040507;28;20431;-65
2021/06/21 02:59:20;;;;;;;12.85;3.85;;;24.00;64.30;;;;;;5058807;28;20060;-65
2021/06/21 03:01:51;;;;;;;8.77;2.80;;;24.00;64.20;;;;;;5055439;28;20025;-65
2021/06/21 03:04:21;;;;;;;10.10;3.70;;;24.00;64.00;;;;;;5070171;28;20108;-65
2021/06/21 03:06:50;;;;;;;9.05;4.40;;;23.80;64.30;;;;;;5057467;28;20029;-64
2021/06/21 03:09:18;;;;;;;9.05;3.78;;;23.50;65.20;;;;;;5064525;28;20033;-65
2021/06/21 03:11:50;;;;;;;8.18;3.22;;;23.30;66.30;;;;;;5065861;28;20028;-66
2021/06/21 03:14:16;;;;;;;10.02;3.40;;;23.30;66.50;;;;;;5056283;28;20047;-65
2021/06/21 03:16:44;;;;;;;99.13;61.33;;;23.40;66.20;;;;;;5068528;28;20391;-65
2021/06/21 03:19:13;;;;;;;388.88;263.23;;;23.50;66.30;;;;;;5048355;28;20032;-65
2021/06/21 03:21:41;;;;;;;146.93;74.13;;;23.60;65.90;;;;;;5070019;28;20021;-64
2021/06/21 03:24:07;;;;;;;14.98;6.03;;;23.70;65.40;;;;;;5057188;28;20017;-65
2021/06/21 03:26:32;;;;;;;43.15;25.08;;;23.80;65.30;;;;;;5051114;28;20596;-65
2021/06/21 03:28:58;;;;;;;14.10;3.90;;;23.90;65.20;;;;;;5057775;28;20059;-64
2021/06/21 03:31:25;;;;;;;10.50;3.42;;;23.90;65.00;;;;;;5062942;28;20384;-65
2021/06/21 03:33:51;;;;;;;11.82;4.07;;;23.70;64.80;;;;;;5052840;28;20560;-65
2021/06/21 03:36:17;;;;;;;8.43;3.53;;;23.70;65.40;;;;;;5035085;28;20449;-65
2021/06/21 03:38:42;;;;;;;8.93;3.55;;;23.80;66.00;;;;;;5057791;28;20036;-64
2021/06/21 03:41:09;;;;;;;9.98;3.80;;;23.90;65.70;;;;;;5063102;28;20405;-64
2021/06/21 03:43:35;;;;;;;9.25;3.83;;;24.00;65.10;;;;;;5055490;28;20025;-64
2021/06/21 03:46:04;;;;;;;12.18;3.60;;;24.00;65.40;;;;;;5065360;28;20028;-66
2021/06/21 03:48:30;;;;;;;11.43;3.45;;;24.00;65.50;;;;;;5043899;28;20171;-64
2021/06/21 03:50:57;;;;;;;9.65;3.25;;;24.00;65.60;;;;;;5050205;28;20055;-65
2021/06/21 03:53:26;;;;;;;13.02;3.90;;;24.00;65.60;;;;;;5056595;28;20033;-63
2021/06/21 03:55:51;;;;;;;10.38;3.60;;;24.10;65.30;;;;;;5064279;28;20036;-65
2021/06/21 03:58:17;;;;;;;9.48;3.40;;;24.20;64.40;;;;;;5055021;28;20085;-64
2021/06/21 04:00:44;;;;;;;13.32;3.55;;;24.10;64.40;;;;;;5050076;28;20029;-64
2021/06/21 04:03:10;;;;;;;11.20;3.75;;;23.80;65.00;;;;;;5060208;28;20021;-65
2021/06/21 04:05:37;;;;;;;15.10;4.07;;;23.60;65.60;;;;;;5061684;28;20021;-64
2021/06/21 04:08:10;;;;;;;7.93;3.53;;;23.70;65.90;;;;;;5067920;28;20024;-64
2021/06/21 04:10:37;;;;;;;9.85;4.50;;;23.80;66.00;;;;;;5055178;28;20371;-64
2021/06/21 04:13:04;;;;;;;16.05;4.90;;;23.80;66.70;;;;;;5065433;28;20033;-65
2021/06/21 04:15:31;;;;;;;15.68;5.30;;;24.00;65.80;;;;;;5062410;28;20454;-65
2021/06/21 04:18:08;;;;;;;12.40;4.18;;;24.00;65.70;;;;;;5039336;28;20028;-65
2021/06/21 04:20:36;;;;;;;15.75;4.53;;;24.00;65.30;;;;;;5067943;28;20044;-65
2021/06/21 04:23:03;;;;;;;10.90;4.00;;;23.90;65.60;;;;;;5058252;28;20029;-65
2021/06/21 04:25:30;;;;;;;8.35;3.38;;;24.00;65.30;;;;;;5043197;28;20021;-64
2021/06/21 04:27:56;;;;;;;15.48;4.75;;;24.10;65.10;;;;;;5065577;28;20520;-65
2021/06/21 04:30:24;;;;;;;18.88;4.35;;;24.20;64.80;;;;;;5054997;28;20040;-65
2021/06/21 04:32:51;;;;;;;13.60;3.40;;;24.20;64.90;;;;;;5065796;28;20025;-65
2021/06/21 04:35:19;;;;;;;10.98;3.42;;;24.30;64.80;;;;;;5051215;28;20708;-65
2021/06/21 04:37:45;;;;;;;13.57;4.32;;;24.40;64.80;;;;;;5055269;28;20534;-64
2021/06/21 04:40:12;;;;;;;11.23;3.92;;;24.50;64.20;;;;;;5045384;28;20307;-65
2021/06/21 04:42:39;;;;;;;16.55;4.57;;;24.50;64.40;;;;;;5037324;28;20043;-65
2021/06/21 04:45:06;;;;;;;15.90;4.05;;;24.40;64.60;;;;;;5044646;28;20107;-65
2021/06/21 04:47:32;;;;;;;9.73;3.42;;;24.50;64.50;;;;;;5060905;28;20390;-64
2021/06/21 04:50:02;;;;;;;10.45;3.75;;;24.80;63.70;;;;;;5054610;28;20025;-65
2021/06/21 04:52:30;;;;;;;11.80;4.03;;;25.00;63.20;;;;;;5065347;28;20021;-66
2021/06/21 04:55:01;;;;;;;15.98;4.00;;;25.30;61.80;;;;;;5055392;28;20091;-65
2021/06/21 04:57:28;;;;;;;8.50;3.63;;;25.60;60.40;;;;;;5059286;28;20075;-65
2021/06/21 04:59:54;;;;;;;16.67;3.83;;;25.70;60.10;;;;;;5064926;28;20482;-65
2021/06/21 05:02:19;;;;;;;12.65;4.00;;;25.80;59.60;;;;;;5053793;28;20095;-65
2021/06/21 05:04:45;;;;;;;10.27;3.97;;;25.50;59.80;;;;;;5066372;28;20071;-64
2021/06/21 05:07:11;;;;;;;18.38;4.57;;;25.40;60.30;;;;;;5058849;28;20028;-65
2021/06/21 05:09:36;;;;;;;14.57;4.68;;;25.50;60.30;;;;;;5059487;28;20017;-65
2021/06/21 05:12:02;;;;;;;12.70;3.92;;;25.40;60.50;;;;;;5066251;28;20071;-63
2021/06/21 05:14:28;;;;;;;10.13;4.10;;;25.70;60.40;;;;;;5054581;28;20029;-64
2021/06/21 05:16:54;;;;;;;9.23;4.15;;;25.90;59.80;;;;;;5065557;28;20021;-69
2021/06/21 05:19:20;;;;;;;9.98;4.35;;;26.20;59.00;;;;;;5056613;28;20025;-67
2021/06/21 05:21:45;;;;;;;11.48;4.43;;;26.50;58.20;;;;;;5057181;28;20032;-66
2021/06/21 05:24:11;;;;;;;11.07;4.40;;;26.70;57.40;;;;;;5067405;28;20020;-67
2021/06/21 05:26:36;;;;;;;14.27;4.22;;;27.00;57.10;;;;;;5053988;28;20028;-66
2021/06/21 05:29:02;;;;;;;12.50;4.32;;;27.30;55.60;;;;;;5063909;28;20459;-67
2021/06/21 05:31:28;;;;;;;14.20;4.85;;;27.30;55.80;;;;;;5043187;28;20122;-67
2021/06/21 05:33:53;;;;;;;13.77;4.30;;;27.20;55.80;;;;;;5056311;28;20067;-67
2021/06/21 05:36:19;;;;;;;16.50;3.97;;;27.30;55.10;;;;;;5067081;28;20025;-67
2021/06/21 05:38:45;;;;;;;10.82;4.20;;;27.40;55.20;;;;;;5055196;28;20486;-67
2021/06/21 05:41:10;;;;;;;9.52;4.28;;;27.40;55.30;;;;;;5062795;28;20036;-66
2021/06/21 05:43:36;;;;;;;11.88;4.35;;;27.50;54.60;;;;;;5062907;28;20435;-67
2021/06/21 05:46:02;;;;;;;17.50;4.82;;;27.30;55.40;;;;;;5058278;28;20025;-66
2021/06/21 05:48:28;;;;;;;11.55;4.68;;;27.50;55.50;;;;;;5062410;28;20043;-65
2021/06/21 05:50:53;;;;;;;18.08;4.47;;;27.90;54.60;;;;;;5035185;28;20055;-65
2021/06/21 05:53:19;;;;;;;13.48;4.55;;;27.90;54.40;;;;;;5074819;28;20024;-65
2021/06/21 05:55:44;;;;;;;11.15;4.63;;;27.70;54.40;;;;;;5061876;28;20497;-66
2021/06/21 05:58:10;;;;;;;13.82;4.57;;;27.70;54.80;;;;;;5070618;28;20056;-66
2021/06/21 06:00:36;;;;;;;15.20;4.50;;;27.50;54.80;;;;;;5040041;28;20111;-66
2021/06/21 06:03:02;;;;;;;13.27;4.80;;;27.00;56.10;;;;;;5049805;28;20025;-66
2021/06/21 06:05:29;;;;;;;15.30;4.70;;;26.80;57.70;;;;;;5064732;28;20588;-66
2021/06/21 06:07:54;;;;;;;8.95;4.75;;;26.70;57.80;;;;;;5059925;28;20387;-71
2021/06/21 06:10:20;;;;;;;162.20;120.07;;;26.70;58.30;;;;;;5070439;28;20025;-71
2021/06/21 06:12:46;;;;;;;71.70;38.25;;;26.90;57.80;;;;;;5041270;28;20045;-72
2021/06/21 06:15:12;;;;;;;14.95;6.78;;;27.00;57.70;;;;;;5066249;28;20041;-71
2021/06/21 06:17:38;;;;;;;11.13;5.18;;;27.10;57.60;;;;;;5067110;28;20081;-72
2021/06/21 06:20:08;;;;;;;17.00;7.85;;;27.30;56.10;;;;;;5045763;28;20479;-72
2021/06/21 06:22:34;;;;;;;12.05;5.93;;;27.70;55.80;;;;;;5072048;28;20111;-69
2021/06/21 06:24:59;;;;;;;31.95;15.80;;;28.10;54.80;;;;;;5060608;28;20017;-71
2021/06/21 06:27:25;;;;;;;30.10;13.40;;;28.40;53.70;;;;;;5063791;28;20025;-70
2021/06/21 06:29:51;;;;;;;18.08;7.60;;;28.50;53.80;;;;;;5067841;28;20150;-70
2021/06/21 06:32:16;;;;;;;24.35;9.45;;;28.50;53.50;;;;;;5056758;28;20100;-70
2021/06/21 06:34:42;;;;;;;25.30;10.48;;;28.80;52.40;;;;;;5040344;28;20037;-68
2021/06/21 06:37:10;;;;;;;11.80;5.70;;;28.80;52.40;;;;;;5066054;28;20093;-70
2021/06/21 06:39:35;;;;;;;20.17;7.97;;;28.90;52.30;;;;;;5065212;28;20509;-70
2021/06/21 06:42:01;;;;;;;36.97;21.85;;;29.00;51.60;;;;;;5058861;28;20033;-68
2021/06/21 06:44:27;;;;;;;59.63;39.53;;;29.20;51.60;;;;;;5070473;28;20103;-69
2021/06/21 06:46:52;;;;;;;45.10;21.30;;;29.00;52.30;;;;;;5059031;28;20429;-68
2021/06/21 06:49:18;;;;;;;26.13;9.43;;;29.20;52.20;;;;;;5064752;28;20021;-70
2021/06/21 06:51:46;;;;;;;27.98;10.43;;;29.00;52.40;;;;;;5066172;28;20028;-70
2021/06/21 06:59:22;;;;;;;23.02;9.07;;;28.60;53.50;;;;;;5071639;28;20059;-64
2021/06/21 07:01:48;;;;;;;16.92;6.95;;;28.70;53.40;;;;;;5071737;28;20021;-64
2021/06/21 07:04:14;;;;;;;25.08;9.65;;;28.80;53.10;;;;;;5072482;28;20059;-64
2021/06/21 07:06:39;;;;;;;19.90;10.13;;;28.70;53.10;;;;;;5073181;28;20029;-64
2021/06/21 07:09:05;;;;;;;13.23;6.30;;;28.80;53.80;;;;;;5055780;28;20055;-64
2021/06/21 07:11:35;;;;;;;18.65;5.97;;;29.00;53.30;;;;;;5072227;28;20062;-64
2021/06/21 07:14:01;;;;;;;16.30;7.63;;;29.30;52.20;;;;;;5073466;28;20097;-64
2021/06/21 07:16:27;;;;;;;14.50;6.70;;;29.80;51.90;;;;;;5073295;28;20089;-64
2021/06/21 07:18:53;;;;;;;19.35;7.80;;;30.20;49.80;;;;;;5055403;28;20028;-63
2021/06/21 07:21:18;;;;;;;22.17;6.88;;;30.50;49.30;;;;;;5073179;28;20028;-63
2021/06/21 07:23:44;;;;;;;10.98;5.28;;;30.70;48.40;;;;;;5055217;28;20021;-63
2021/06/21 07:26:09;;;;;;;15.07;5.80;;;30.90;48.60;;;;;;5072876;28;20031;-64
2021/06/21 07:28:35;;;;;;;11.82;6.07;;;31.80;46.60;;;;;;5072927;28;20020;-63
2021/06/21 07:31:01;;;;;;;9.70;5.40;;;33.30;43.70;;;;;;5073126;28;20096;-64
2021/06/21 07:33:26;;;;;;;16.38;7.80;;;35.20;39.90;;;;;;5073203;28;20044;-64
2021/06/21 07:35:52;;;;;;;12.25;5.45;;;37.30;35.50;;;;;;5055100;28;20027;-64
2021/06/21 07:38:19;;;;;;;10.90;6.20;;;38.90;32.40;;;;;;5039128;28;20128;-64
2021/06/21 07:40:44;;;;;;;9.48;5.03;;;39.80;31.20;;;;;;5030224;28;20479;-63
2021/06/21 07:43:10;;;;;;;10.52;4.80;;;40.80;29.70;;;;;;5045132;28;20111;-63
2021/06/21 07:45:35;;;;;;;17.30;5.07;;;38.90;31.50;;;;;;5052655;28;20019;-63
2021/06/21 07:48:01;;;;;;;20.27;5.82;;;37.30;34.20;;;;;;5040914;28;20034;-63
2021/06/21 07:50:29;;;;;;;10.77;5.28;;;35.30;37.60;;;;;;5032784;28;20033;-63
2021/06/21 07:52:55;;;;;;;11.77;4.97;;;34.60;39.70;;;;;;5032692;28;20505;-63
2021/06/21 07:55:24;;;;;;;14.60;4.25;;;34.50;40.20;;;;;;5032884;28;20030;-63
2021/06/21 07:57:51;;;;;;;17.00;6.03;;;35.10;38.60;;;;;;5032536;28;20056;-63
2021/06/21 08:00:19;;;;;;;12.07;5.28;;;34.90;39.20;;;;;;5032460;28;20026;-63
2021/06/21 08:02:45;;;;;;;10.88;4.50;;;34.80;39.20;;;;;;5032690;28;20384;-62
2021/06/21 08:05:11;;;;;;;10.82;4.05;;;35.70;37.00;;;;;;5033085;28;20132;-62
2021/06/21 08:07:37;;;;;;;12.73;4.25;;;37.00;34.50;;;;;;5031144;28;20044;-64
2021/06/21 08:10:03;;;;;;;16.63;3.88;;;38.50;32.50;;;;;;5032407;28;20029;-63
2021/06/21 08:12:28;;;;;;;8.95;3.40;;;39.70;31.60;;;;;;5032319;28;20032;-63
2021/06/21 08:14:54;;;;;;;11.27;4.15;;;39.60;30.40;;;;;;5036943;28;20037;-62
2021/06/21 08:17:19;;;;;;;12.90;4.45;;;38.70;31.10;;;;;;5031497;28;20025;-63
2021/06/21 08:19:45;;;;;;;7.68;3.40;;;38.10;32.30;;;;;;5014469;28;20040;-62
2021/06/21 08:22:10;;;;;;;10.15;3.33;;;37.40;33.00;;;;;;5037088;28;20075;-63
2021/06/21 08:24:38;;;;;;;13.32;3.83;;;36.80;33.60;;;;;;5051930;28;20025;-63
2021/06/21 08:27:04;;;;;;;9.10;3.53;;;36.80;33.50;;;;;;5051842;28;20025;-63
2021/06/21 08:29:29;;;;;;;7.70;3.80;;;36.60;33.80;;;;;;5051665;28;20024;-63
2021/06/21 08:31:55;;;;;;;7.30;3.38;;;37.20;32.90;;;;;;5051918;28;20021;-63
2021/06/21 08:34:20;;;;;;;7.45;3.55;;;37.20;32.80;;;;;;5051083;28;20029;-63
2021/06/21 08:36:46;;;;;;;8.35;3.72;;;36.90;33.50;;;;;;5051451;28;20532;-63
2021/06/21 08:39:11;;;;;;;6.57;3.58;;;36.50;33.80;;;;;;5051586;28;20025;-63
2021/06/21 08:41:37;;;;;;;9.02;3.20;;;37.00;33.30;;;;;;5051599;28;20021;-63
2021/06/21 08:44:03;;;;;;;14.18;3.95;;;37.30;32.80;;;;;;5051733;28;20033;-63
2021/06/21 08:46:29;;;;;;;13.68;3.53;;;37.40;32.80;;;;;;5051430;28;20074;-63
2021/06/21 08:48:57;;;;;;;8.93;3.30;;;36.60;32.90;;;;;;5051426;28;20067;-63
2021/06/21 08:51:23;;;;;;;9.98;3.15;;;35.80;34.30;;;;;;5051278;28;20388;-63
2021/06/21 08:53:49;;;;;;;11.43;3.92;;;35.70;34.70;;;;;;5051392;28;20029;-63
2021/06/21 08:56:14;;;;;;;9.90;3.38;;;35.50;35.30;;;;;;5051091;28;20104;-63
2021/06/21 08:58:40;;;;;;;10.27;3.47;;;35.90;34.60;;;;;;5051612;28;20453;-63
2021/06/21 09:01:07;;;;;;;16.13;3.78;;;35.60;35.20;;;;;;5051089;28;20405;-63
2021/06/21 09:03:34;;;;;;;13.10;3.85;;;35.80;34.70;;;;;;5051343;28;20466;-63
2021/06/21 09:06:00;;;;;;;8.75;3.33;;;35.60;34.90;;;;;;5051427;28;20457;-62
2021/06/21 09:08:25;;;;;;;9.38;3.75;;;35.40;35.60;;;;;;5051155;28;20021;-62
2021/06/21 09:10:52;;;;;;;8.30;3.75;;;35.50;35.70;;;;;;5050067;28;20043;-63
2021/06/21 09:13:19;;;;;;;9.25;3.13;;;36.00;35.40;;;;;;5051713;28;20086;-64
2021/06/21 09:15:56;;;;;;;10.48;3.58;;;36.70;34.10;;;;;;5033488;28;20064;-64
2021/06/21 09:18:28;;;;;;;9.27;3.28;;;36.70;33.50;;;;;;5051089;28;20487;-64
2021/06/21 09:21:20;;;;;;;9.82;3.63;;;36.60;34.40;;;;;;5055288;28;20390;-63
2021/06/21 09:23:48;;;;;;;10.02;2.92;;;37.10;33.60;;;;;;5035599;28;20563;-64
2021/06/21 09:26:20;;;;;;;12.30;3.15;;;37.80;32.60;;;;;;5035278;28;20021;-63
2021/06/21 09:28:45;;;;;;;10.45;3.28;;;38.20;31.60;;;;;;5035340;28;20022;-63
2021/06/21 09:31:11;;;;;;;8.45;3.25;;;38.20;31.90;;;;;;5035307;28;20039;-63
2021/06/21 09:33:37;;;;;;;11.90;3.80;;;38.40;31.90;;;;;;5035340;28;20041;-63
2021/06/21 09:36:04;;;;;;;8.60;2.90;;;38.40;31.70;;;;;;5034815;28;20025;-63
2021/06/21 09:38:30;;;;;;;8.77;3.28;;;38.40;31.50;;;;;;5034241;28;20436;-64
2021/06/21 09:40:57;;;;;;;12.23;3.13;;;38.40;32.10;;;;;;5035002;28;20021;-63
2021/06/21 09:43:34;;;;;;;9.60;3.38;;;37.50;32.90;;;;;;5054012;28;20483;-63
2021/06/21 09:46:07;;;;;;;9.20;3.22;;;37.10;33.60;;;;;;5037363;28;20029;-64
2021/06/21 09:48:34;;;;;;;10.25;2.80;;;36.90;33.90;;;;;;5042404;28;20064;-64
2021/06/21 09:51:19;;;;;;;10.77;3.13;;;36.90;34.40;;;;;;5034835;28;20041;-63
2021/06/21 09:53:56;;;;;;;8.68;2.65;;;37.00;33.80;;;;;;5034971;28;20079;-63
2021/06/21 09:56:46;;;;;;;13.50;3.15;;;37.10;33.80;;;;;;5034942;28;20045;-64
2021/06/21 09:59:29;;;;;;;9.40;3.50;;;36.90;32.90;;;;;;5042958;28;20029;-64
2021/06/21 10:02:05;;;;;;;13.52;3.15;;;37.00;33.10;;;;;;5054681;28;20025;-64
2021/06/21 10:04:31;;;;;;;10.00;3.08;;;37.00;33.60;;;;;;5054395;28;20025;-64
2021/06/21 10:06:57;;;;;;;8.57;2.92;;;36.60;34.50;;;;;;5053099;28;20013;-63
2021/06/21 10:09:23;;;;;;;8.48;2.65;;;36.00;34.30;;;;;;5054296;28;20093;-64
2021/06/21 10:11:48;;;;;;;11.70;2.50;;;36.00;33.70;;;;;;5054489;28;20490;-64
2021/06/21 10:14:19;;;;;;;8.32;2.60;;;35.70;32.50;;;;;;5054692;28;20033;-63
2021/06/21 10:16:47;;;;;;;12.38;2.80;;;35.20;34.40;;;;;;5054446;28;20036;-63
2021/06/21 10:19:15;;;;;;;8.80;2.30;;;35.10;34.10;;;;;;5036941;28;20036;-64
2021/06/21 10:21:52;;;;;;;9.18;2.72;;;35.30;32.80;;;;;;5054323;28;20203;-63
2021/06/21 10:24:18;;;;;;;12.32;2.35;;;35.00;32.90;;;;;;5054639;28;20025;-63
2021/06/21 10:26:50;;;;;;;10.35;2.47;;;34.90;32.80;;;;;;5053941;28;20104;-63
2021/06/21 10:29:17;;;;;;;11.60;2.78;;;34.70;32.50;;;;;;5054114;28;20021;-63
2021/06/21 10:31:43;;;;;;;14.02;3.28;;;34.50;34.80;;;;;;5053275;28;20398;-63
2021/06/21 10:34:09;;;;;;;17.38;3.03;;;34.30;35.80;;;;;;5036170;28;20108;-63
2021/06/21 10:36:49;;;;;;;7.43;2.72;;;33.70;37.50;;;;;;5053361;28;20121;-63
2021/06/21 10:39:18;;;;;;;12.68;2.58;;;33.40;36.50;;;;;;5053428;28;20025;-63
2021/06/21 10:42:05;;;;;;;7.07;2.17;;;33.10;37.00;;;;;;5058815;28;20148;-63
2021/06/21 10:44:44;;;;;;;8.00;2.72;;;32.90;38.70;;;;;;5060114;28;20497;-63
2021/06/21 10:47:22;;;;;;;7.13;2.35;;;32.70;37.10;;;;;;5064146;28;20470;-64
2021/06/21 10:50:15;;;;;;;9.65;2.47;;;32.60;38.60;;;;;;5039517;28;20041;-63
2021/06/21 10:52:47;;;;;;;6.95;2.60;;;32.40;39.10;;;;;;5065307;28;20045;-63
2021/06/21 10:57:55;;;;;;;9.25;2.03;;;32.50;38.20;;;;;;5056716;28;20293;-63
2021/06/21 11:00:30;;;;;;;8.50;2.30;;;32.40;38.40;;;;;;5068487;28;20017;-63
2021/06/21 11:02:55;;;;;;;7.57;2.45;;;32.00;39.30;;;;;;5057302;28;20513;-63
2021/06/21 11:05:39;;;;;;;10.05;2.90;;;31.90;40.00;;;;;;5067967;28;20037;-64
2021/06/21 11:08:16;;;;;;;9.10;2.65;;;31.80;40.30;;;;;;5073318;28;20040;-64
2021/06/21 11:10:43;;;;;;;9.63;2.55;;;31.90;40.20;;;;;;5046438;28;20033;-63
2021/06/21 11:13:34;;;;;;;7.35;2.05;;;32.00;40.20;;;;;;5052370;28;20355;-63
2021/06/21 11:16:22;;;;;;;6.85;2.35;;;32.00;40.70;;;;;;5052722;28;20032;-64
2021/06/21 11:19:08;;;;;;;11.27;2.40;;;32.10;40.60;;;;;;5052720;28;20383;-64
2021/06/21 11:21:47;;;;;;;8.27;2.78;;;32.10;38.90;;;;;;5038066;28;20131;-64
2021/06/21 11:24:46;;;;;;;10.30;2.55;;;31.80;41.30;;;;;;5052483;28;20075;-64
2021/06/21 11:27:12;;;;;;;7.63;2.30;;;31.70;42.60;;;;;;5056604;28;20040;-64
2021/06/21 11:29:44;;;;;;;6.80;2.33;;;31.90;43.20;;;;;;5052873;28;20379;-64
2021/06/21 11:32:12;;;;;;;13.32;2.47;;;31.70;41.60;;;;;;5059175;28;20025;-64
2021/06/21 11:35:00;;;;;;;10.00;2.60;;;31.70;40.90;;;;;;5057743;28;20415;-64
2021/06/21 11:37:38;;;;;;;9.65;2.42;;;31.80;41.70;;;;;;5052625;28;20036;-63
2021/06/21 11:40:13;;;;;;;10.35;3.08;;;31.70;40.30;;;;;;5057160;28;20052;-63
2021/06/21 11:42:43;;;;;;;8.55;2.30;;;31.80;40.10;;;;;;5054686;28;20036;-64
2021/06/21 11:45:09;;;;;;;8.63;2.60;;;31.80;40.80;;;;;;5066715;28;20106;-64
2021/06/21 11:47:38;;;;;;;9.25;2.70;;;31.80;40.90;;;;;;5055181;28;20109;-64
2021/06/21 11:50:12;;;;;;;11.00;2.80;;;31.70;40.90;;;;;;5018024;28;20171;-64
2021/06/21 11:52:39;;;;;;;10.85;2.90;;;31.80;41.70;;;;;;5060062;28;20028;-64
2021/06/21 11:55:15;;;;;;;8.35;2.60;;;31.80;40.30;;;;;;5042325;28;20107;-64
2021/06/21 11:57:46;;;;;;;9.48;2.83;;;31.80;40.70;;;;;;5060431;28;20521;-64
2021/06/21 12:00:13;;;;;;;12.32;3.25;;;31.70;40.00;;;;;;5051994;28;20532;-64
2021/06/21 12:02:39;;;;;;;10.07;2.88;;;31.70;40.60;;;;;;5033531;28;20041;-64
2021/06/21 12:05:10;;;;;;;10.35;3.00;;;31.90;40.70;;;;;;5051457;28;20025;-64
2021/06/21 12:07:38;;;;;;;13.27;3.00;;;31.90;39.90;;;;;;5051808;28;20031;-63
2021/06/21 12:10:07;;;;;;;10.00;3.13;;;31.90;39.80;;;;;;5052539;28;20029;-64
2021/06/21 12:12:35;;;;;;;10.70;3.05;;;32.00;39.60;;;;;;5052333;28;20068;-64
2021/06/21 12:15:02;;;;;;;11.52;3.13;;;32.10;39.00;;;;;;5034477;28;20029;-64
2021/06/21 12:17:30;;;;;;;9.73;3.35;;;32.20;39.20;;;;;;5051836;28;20021;-64
2021/06/21 12:20:15;;;;;;;9.73;2.95;;;32.40;38.20;;;;;;5052250;28;20035;-64
2021/06/21 12:22:53;;;;;;;11.60;2.92;;;32.30;38.10;;;;;;5052146;28;20082;-58
2021/06/21 12:25:23;;;;;;;12.88;3.45;;;32.30;37.10;;;;;;5033458;28;20079;-64
2021/06/21 12:27:52;;;;;;;11.00;2.97;;;32.50;38.30;;;;;;5051636;28;20363;-64
2021/06/21 12:30:37;;;;;;;12.13;3.22;;;32.60;38.00;;;;;;5051718;28;20274;-64
2021/06/21 12:33:25;;;;;;;8.65;2.88;;;32.50;36.60;;;;;;5050087;28;20021;-64
2021/06/21 12:36:07;;;;;;;14.95;3.15;;;32.50;37.00;;;;;;5049794;28;20475;-65
2021/06/21 12:38:33;;;;;;;10.07;2.40;;;32.50;36.40;;;;;;5049952;28;20025;-65
2021/06/21 12:41:09;;;;;;;7.07;2.65;;;32.30;35.80;;;;;;5049980;28;20021;-64
2021/06/21 12:43:34;;;;;;;9.73;3.00;;;32.30;36.40;;;;;;5030271;28;20057;-64
2021/06/21 12:46:14;;;;;;;11.77;2.47;;;32.30;36.30;;;;;;5030305;28;20053;-64
2021/06/21 12:48:42;;;;;;;13.88;3.10;;;32.30;35.90;;;;;;5043767;28;20135;-64
2021/06/21 12:51:08;;;;;;;11.35;2.95;;;32.20;37.60;;;;;;5033884;28;20045;-64
2021/06/21 12:53:34;;;;;;;11.65;3.38;;;32.20;37.60;;;;;;5051167;28;20033;-64